sensor_id;sensor_type;location;lat;lon;timestamp;P1;durP1;ratioP1;P2;durP2;ratioP2
1765;SDS011;880;52.452;8.656;2023-12-14T00:01:17;9.55;;;8.77;;
1765;SDS011;880;52.452;8.656;2023-12-14T00:03:44;9.15;;;8.65;;
1765;SDS011;880;52.452;8.656;2023-12-14T00:06:11;7.63;;;7.10;;
1765;SDS011;880;52.452;8.656;2023-12-14T00:08:39;10.57;;;9.85;;
1765;SDS011;880;52.452;8.656;2023-12-14T00:11:07;9.23;;;8.68;;
1765;SDS011;880;52.452;8.656;2023-12-14T00:13:36;10.55;;;9.90;;
1765;SDS011;880;52.452;8.656;2023-12-14T00:16:04;9.07;;;8.45;;
1765;SDS011;880;52.452;8.656;2023-12-14T00:18:32;9.00;;;8.30;;
1765;SDS011;880;52.452;8.656;2023-12-14T00:20:59;9.27;;;8.57;;
1765;SDS011;880;52.452;8.656;2023-12-14T00:23:27;10.60;;;8.00;;
1765;SDS011;880;52.452;8.656;2023-12-14T00:25:54;10.27;;;9.55;;
1765;SDS011;880;52.452;8.656;2023-12-14T00:28:21;9.35;;;8.65;;
1765;SDS011;880;52.452;8.656;2023-12-14T00:30:51;9.95;;;9.15;;
1765;SDS011;880;52.452;8.656;2023-12-14T00:33:18;9.43;;;8.65;;
1765;SDS011;880;52.452;8.656;2023-12-14T00:35:46;9.38;;;8.63;;
1765;SDS011;880;52.452;8.656;2023-12-14T00:38:14;10.05;;;9.30;;
1765;SDS011;880;52.452;8.656;2023-12-14T00:40:41;9.93;;;9.13;;
1765;SDS011;880;52.452;8.656;2023-12-14T00:43:08;11.65;;;10.63;;
1765;SDS011;880;52.452;8.656;2023-12-14T00:45:35;10.65;;;9.88;;
1765;SDS011;880;52.452;8.656;2023-12-14T00:48:02;8.63;;;8.13;;
1765;SDS011;880;52.452;8.656;2023-12-14T00:50:29;9.52;;;8.82;;
1765;SDS011;880;52.452;8.656;2023-12-14T00:52:56;9.73;;;9.13;;
1765;SDS011;880;52.452;8.656;2023-12-14T00:55:23;10.55;;;9.85;;
1765;SDS011;880;52.452;8.656;2023-12-14T00:57:50;9.88;;;9.25;;
1765;SDS011;880;52.452;8.656;2023-12-14T01:00:18;8.82;;;8.13;;
1765;SDS011;880;52.452;8.656;2023-12-14T01:02:45;10.30;;;9.52;;
1765;SDS011;880;52.452;8.656;2023-12-14T01:05:12;12.02;;;11.25;;
1765;SDS011;880;52.452;8.656;2023-12-14T01:07:39;9.05;;;8.55;;
1765;SDS011;880;52.452;8.656;2023-12-14T01:10:06;10.02;;;9.32;;
1765;SDS011;880;52.452;8.656;2023-12-14T01:12:34;9.00;;;8.50;;
1765;SDS011;880;52.452;8.656;2023-12-14T01:15:01;10.73;;;9.85;;
1765;SDS011;880;52.452;8.656;2023-12-14T01:17:28;8.40;;;8.00;;
1765;SDS011;880;52.452;8.656;2023-12-14T01:19:55;9.43;;;8.85;;
1765;SDS011;880;52.452;8.656;2023-12-14T01:22:22;9.60;;;9.10;;
1765;SDS011;880;52.452;8.656;2023-12-14T01:24:49;8.95;;;8.40;;
1765;SDS011;880;52.452;8.656;2023-12-14T01:27:16;8.88;;;8.48;;
1765;SDS011;880;52.452;8.656;2023-12-14T01:29:43;9.27;;;8.73;;
1765;SDS011;880;52.452;8.656;2023-12-14T01:32:10;8.50;;;8.02;;
1765;SDS011;880;52.452;8.656;2023-12-14T01:34:37;9.68;;;8.95;;
1765;SDS011;880;52.452;8.656;2023-12-14T01:37:04;9.77;;;9.18;;
1765;SDS011;880;52.452;8.656;2023-12-14T01:39:31;9.18;;;8.68;;
1765;SDS011;880;52.452;8.656;2023-12-14T01:41:59;10.80;;;9.90;;
1765;SDS011;880;52.452;8.656;2023-12-14T01:44:26;10.05;;;9.20;;
1765;SDS011;880;52.452;8.656;2023-12-14T01:46:53;8.93;;;8.40;;
1765;SDS011;880;52.452;8.656;2023-12-14T01:49:20;10.68;;;9.77;;
1765;SDS011;880;52.452;8.656;2023-12-14T01:51:47;9.57;;;8.88;;
1765;SDS011;880;52.452;8.656;2023-12-14T01:54:14;10.13;;;9.43;;
1765;SDS011;880;52.452;8.656;2023-12-14T01:56:41;10.73;;;10.13;;
1765;SDS011;880;52.452;8.656;2023-12-14T01:59:08;9.57;;;8.90;;
1765;SDS011;880;52.452;8.656;2023-12-14T02:01:38;10.38;;;9.68;;
1765;SDS011;880;52.452;8.656;2023-12-14T02:04:11;10.05;;;9.43;;
1765;SDS011;880;52.452;8.656;2023-12-14T02:06:40;10.38;;;9.55;;
1765;SDS011;880;52.452;8.656;2023-12-14T02:09:08;9.73;;;9.02;;
1765;SDS011;880;52.452;8.656;2023-12-14T02:11:35;9.45;;;8.88;;
1765;SDS011;880;52.452;8.656;2023-12-14T02:14:03;9.75;;;9.07;;
1765;SDS011;880;52.452;8.656;2023-12-14T02:16:32;9.27;;;8.57;;
1765;SDS011;880;52.452;8.656;2023-12-14T02:18:59;9.20;;;8.60;;
1765;SDS011;880;52.452;8.656;2023-12-14T02:21:26;10.25;;;9.45;;
1765;SDS011;880;52.452;8.656;2023-12-14T02:23:53;9.90;;;9.27;;
1765;SDS011;880;52.452;8.656;2023-12-14T02:26:20;9.90;;;9.15;;
1765;SDS011;880;52.452;8.656;2023-12-14T02:28:47;10.43;;;9.73;;
1765;SDS011;880;52.452;8.656;2023-12-14T02:31:14;8.98;;;8.38;;
1765;SDS011;880;52.452;8.656;2023-12-14T02:33:41;10.43;;;9.65;;
1765;SDS011;880;52.452;8.656;2023-12-14T02:36:08;10.43;;;9.63;;
1765;SDS011;880;52.452;8.656;2023-12-14T02:38:36;9.18;;;8.57;;
1765;SDS011;880;52.452;8.656;2023-12-14T02:41:03;9.20;;;8.60;;
1765;SDS011;880;52.452;8.656;2023-12-14T02:43:30;10.32;;;9.60;;
1765;SDS011;880;52.452;8.656;2023-12-14T02:45:57;9.23;;;8.50;;
1765;SDS011;880;52.452;8.656;2023-12-14T02:48:28;9.00;;;8.40;;
1765;SDS011;880;52.452;8.656;2023-12-14T02:50:58;9.50;;;8.90;;
1765;SDS011;880;52.452;8.656;2023-12-14T02:53:26;10.65;;;10.05;;
1765;SDS011;880;52.452;8.656;2023-12-14T02:55:54;9.70;;;9.10;;
1765;SDS011;880;52.452;8.656;2023-12-14T02:58:21;10.07;;;9.38;;
1765;SDS011;880;52.452;8.656;2023-12-14T03:00:48;10.38;;;9.68;;
1765;SDS011;880;52.452;8.656;2023-12-14T03:03:15;10.43;;;9.70;;
1765;SDS011;880;52.452;8.656;2023-12-14T03:05:42;9.82;;;9.13;;
1765;SDS011;880;52.452;8.656;2023-12-14T03:08:09;11.05;;;10.25;;
1765;SDS011;880;52.452;8.656;2023-12-14T03:10:36;10.38;;;9.77;;
1765;SDS011;880;52.452;8.656;2023-12-14T03:13:03;10.40;;;9.50;;
1765;SDS011;880;52.452;8.656;2023-12-14T03:15:30;9.07;;;8.57;;
1765;SDS011;880;52.452;8.656;2023-12-14T03:17:57;9.88;;;9.15;;
1765;SDS011;880;52.452;8.656;2023-12-14T03:20:24;9.27;;;8.75;;
1765;SDS011;880;52.452;8.656;2023-12-14T03:22:51;9.23;;;8.63;;
1765;SDS011;880;52.452;8.656;2023-12-14T03:25:18;8.82;;;8.32;;
1765;SDS011;880;52.452;8.656;2023-12-14T03:27:48;10.30;;;9.60;;
1765;SDS011;880;52.452;8.656;2023-12-14T03:30:15;9.13;;;8.43;;
1765;SDS011;880;52.452;8.656;2023-12-14T03:32:42;9.65;;;9.10;;
1765;SDS011;880;52.452;8.656;2023-12-14T03:35:09;9.48;;;8.88;;
1765;SDS011;880;52.452;8.656;2023-12-14T03:37:36;9.65;;;9.15;;
1765;SDS011;880;52.452;8.656;2023-12-14T03:40:03;10.55;;;9.60;;
1765;SDS011;880;52.452;8.656;2023-12-14T03:42:31;9.93;;;9.32;;
1765;SDS011;880;52.452;8.656;2023-12-14T03:44:59;9.35;;;8.80;;
1765;SDS011;880;52.452;8.656;2023-12-14T03:47:26;9.15;;;8.55;;
1765;SDS011;880;52.452;8.656;2023-12-14T03:49:52;9.80;;;9.00;;
1765;SDS011;880;52.452;8.656;2023-12-14T03:52:20;9.00;;;8.55;;
1765;SDS011;880;52.452;8.656;2023-12-14T03:54:47;10.05;;;9.43;;
1765;SDS011;880;52.452;8.656;2023-12-14T03:57:13;9.65;;;9.15;;
1765;SDS011;880;52.452;8.656;2023-12-14T03:59:40;9.75;;;9.15;;
1765;SDS011;880;52.452;8.656;2023-12-14T04:02:07;10.30;;;9.70;;
1765;SDS011;880;52.452;8.656;2023-12-14T04:04:34;9.55;;;8.90;;
1765;SDS011;880;52.452;8.656;2023-12-14T04:07:01;10.07;;;9.18;;
1765;SDS011;880;52.452;8.656;2023-12-14T04:09:28;9.75;;;9.18;;
1765;SDS011;880;52.452;8.656;2023-12-14T04:11:55;10.23;;;9.52;;
1765;SDS011;880;52.452;8.656;2023-12-14T04:14:22;10.52;;;9.82;;
1765;SDS011;880;52.452;8.656;2023-12-14T04:16:49;11.00;;;10.15;;
1765;SDS011;880;52.452;8.656;2023-12-14T04:19:16;9.90;;;9.32;;
1765;SDS011;880;52.452;8.656;2023-12-14T04:21:43;10.43;;;9.70;;
1765;SDS011;880;52.452;8.656;2023-12-14T04:24:10;9.90;;;9.23;;
1765;SDS011;880;52.452;8.656;2023-12-14T04:26:38;10.10;;;9.30;;
1765;SDS011;880;52.452;8.656;2023-12-14T04:29:05;10.38;;;9.70;;
1765;SDS011;880;52.452;8.656;2023-12-14T04:31:34;9.70;;;9.07;;
1765;SDS011;880;52.452;8.656;2023-12-14T04:34:01;10.35;;;9.63;;
1765;SDS011;880;52.452;8.656;2023-12-14T04:36:28;10.40;;;9.70;;
1765;SDS011;880;52.452;8.656;2023-12-14T04:38:55;8.68;;;8.07;;
1765;SDS011;880;52.452;8.656;2023-12-14T04:41:22;9.05;;;8.55;;
1765;SDS011;880;52.452;8.656;2023-12-14T04:43:49;8.60;;;8.00;;
1765;SDS011;880;52.452;8.656;2023-12-14T04:46:16;10.25;;;9.45;;
1765;SDS011;880;52.452;8.656;2023-12-14T04:48:43;9.05;;;8.43;;
1765;SDS011;880;52.452;8.656;2023-12-14T04:51:11;9.82;;;9.32;;
1765;SDS011;880;52.452;8.656;2023-12-14T04:53:39;9.45;;;8.85;;
1765;SDS011;880;52.452;8.656;2023-12-14T04:56:09;10.00;;;9.40;;
1765;SDS011;880;52.452;8.656;2023-12-14T04:58:41;9.73;;;9.13;;
1765;SDS011;880;52.452;8.656;2023-12-14T05:01:08;9.05;;;8.27;;
1765;SDS011;880;52.452;8.656;2023-12-14T05:03:35;8.57;;;7.97;;
1765;SDS011;880;52.452;8.656;2023-12-14T05:06:02;8.10;;;7.55;;
1765;SDS011;880;52.452;8.656;2023-12-14T05:08:30;9.50;;;8.88;;
1765;SDS011;880;52.452;8.656;2023-12-14T05:10:57;8.43;;;7.90;;
1765;SDS011;880;52.452;8.656;2023-12-14T05:13:24;9.10;;;8.50;;
1765;SDS011;880;52.452;8.656;2023-12-14T05:15:51;8.32;;;7.82;;
1765;SDS011;880;52.452;8.656;2023-12-14T05:18:18;9.50;;;8.82;;
1765;SDS011;880;52.452;8.656;2023-12-14T05:20:45;9.75;;;9.15;;
1765;SDS011;880;52.452;8.656;2023-12-14T05:23:13;8.95;;;8.45;;
1765;SDS011;880;52.452;8.656;2023-12-14T05:25:40;9.23;;;8.63;;
1765;SDS011;880;52.452;8.656;2023-12-14T05:28:07;9.43;;;8.82;;
1765;SDS011;880;52.452;8.656;2023-12-14T05:30:35;10.18;;;9.38;;
1765;SDS011;880;52.452;8.656;2023-12-14T05:33:02;9.40;;;8.73;;
1765;SDS011;880;52.452;8.656;2023-12-14T05:35:29;9.95;;;9.25;;
1765;SDS011;880;52.452;8.656;2023-12-14T05:37:56;10.43;;;9.82;;
1765;SDS011;880;52.452;8.656;2023-12-14T05:40:23;10.48;;;9.80;;
1765;SDS011;880;52.452;8.656;2023-12-14T05:42:50;10.35;;;9.65;;
1765;SDS011;880;52.452;8.656;2023-12-14T05:45:18;9.93;;;9.43;;
1765;SDS011;880;52.452;8.656;2023-12-14T05:47:44;10.23;;;9.55;;
1765;SDS011;880;52.452;8.656;2023-12-14T05:50:12;10.68;;;9.85;;
1765;SDS011;880;52.452;8.656;2023-12-14T05:52:40;12.10;;;11.30;;
1765;SDS011;880;52.452;8.656;2023-12-14T05:55:07;11.60;;;10.60;;
1765;SDS011;880;52.452;8.656;2023-12-14T05:57:38;11.70;;;10.35;;
1765;SDS011;880;52.452;8.656;2023-12-14T06:00:05;9.20;;;8.70;;
1765;SDS011;880;52.452;8.656;2023-12-14T06:02:36;9.90;;;9.40;;
1765;SDS011;880;52.452;8.656;2023-12-14T06:05:06;9.75;;;9.25;;
1765;SDS011;880;52.452;8.656;2023-12-14T06:07:34;11.55;;;10.45;;
1765;SDS011;880;52.452;8.656;2023-12-14T06:10:01;10.27;;;9.55;;
1765;SDS011;880;52.452;8.656;2023-12-14T06:12:29;10.90;;;10.23;;
1765;SDS011;880;52.452;8.656;2023-12-14T06:14:57;10.38;;;9.57;;
1765;SDS011;880;52.452;8.656;2023-12-14T06:17:24;10.27;;;9.60;;
1765;SDS011;880;52.452;8.656;2023-12-14T06:19:53;10.32;;;9.73;;
1765;SDS011;880;52.452;8.656;2023-12-14T06:22:20;10.80;;;10.00;;
1765;SDS011;880;52.452;8.656;2023-12-14T06:24:47;10.55;;;9.80;;
1765;SDS011;880;52.452;8.656;2023-12-14T06:27:14;10.00;;;9.40;;
1765;SDS011;880;52.452;8.656;2023-12-14T06:29:41;10.48;;;9.88;;
1765;SDS011;880;52.452;8.656;2023-12-14T06:32:08;10.18;;;9.57;;
1765;SDS011;880;52.452;8.656;2023-12-14T06:34:35;9.80;;;9.30;;
1765;SDS011;880;52.452;8.656;2023-12-14T06:37:03;11.02;;;10.38;;
1765;SDS011;880;52.452;8.656;2023-12-14T06:39:30;11.25;;;10.38;;
1765;SDS011;880;52.452;8.656;2023-12-14T06:41:57;9.95;;;9.15;;
1765;SDS011;880;52.452;8.656;2023-12-14T06:44:23;8.95;;;8.45;;
1765;SDS011;880;52.452;8.656;2023-12-14T06:46:52;9.75;;;9.15;;
1765;SDS011;880;52.452;8.656;2023-12-14T06:49:20;9.80;;;9.20;;
1765;SDS011;880;52.452;8.656;2023-12-14T06:51:47;9.18;;;8.63;;
1765;SDS011;880;52.452;8.656;2023-12-14T06:54:14;10.15;;;9.48;;
1765;SDS011;880;52.452;8.656;2023-12-14T06:56:41;9.40;;;8.90;;
1765;SDS011;880;52.452;8.656;2023-12-14T06:59:09;9.63;;;9.10;;
1765;SDS011;880;52.452;8.656;2023-12-14T07:01:36;9.15;;;8.65;;
1765;SDS011;880;52.452;8.656;2023-12-14T07:04:03;9.32;;;8.73;;
1765;SDS011;880;52.452;8.656;2023-12-14T07:06:30;9.45;;;8.88;;
1765;SDS011;880;52.452;8.656;2023-12-14T07:08:57;10.45;;;9.70;;
1765;SDS011;880;52.452;8.656;2023-12-14T07:11:24;10.77;;;10.07;;
1765;SDS011;880;52.452;8.656;2023-12-14T07:13:51;9.90;;;9.30;;
1765;SDS011;880;52.452;8.656;2023-12-14T07:16:19;10.73;;;10.05;;
1765;SDS011;880;52.452;8.656;2023-12-14T07:18:46;12.02;;;11.23;;
1765;SDS011;880;52.452;8.656;2023-12-14T07:21:13;11.45;;;10.65;;
1765;SDS011;880;52.452;8.656;2023-12-14T07:23:40;10.52;;;9.80;;
1765;SDS011;880;52.452;8.656;2023-12-14T07:26:07;9.98;;;9.23;;
1765;SDS011;880;52.452;8.656;2023-12-14T07:28:35;9.10;;;8.32;;
1765;SDS011;880;52.452;8.656;2023-12-14T07:31:02;9.48;;;8.98;;
1765;SDS011;880;52.452;8.656;2023-12-14T07:33:29;9.82;;;9.07;;
1765;SDS011;880;52.452;8.656;2023-12-14T07:35:56;11.25;;;10.65;;
1765;SDS011;880;52.452;8.656;2023-12-14T07:38:23;10.73;;;10.02;;
1765;SDS011;880;52.452;8.656;2023-12-14T07:40:51;12.35;;;11.55;;
1765;SDS011;880;52.452;8.656;2023-12-14T07:43:19;10.75;;;10.15;;
1765;SDS011;880;52.452;8.656;2023-12-14T07:45:46;11.15;;;10.52;;
1765;SDS011;880;52.452;8.656;2023-12-14T07:48:13;11.70;;;10.88;;
1765;SDS011;880;52.452;8.656;2023-12-14T07:50:40;12.02;;;11.25;;
1765;SDS011;880;52.452;8.656;2023-12-14T07:53:07;12.70;;;11.80;;
1765;SDS011;880;52.452;8.656;2023-12-14T07:55:34;12.20;;;11.45;;
1765;SDS011;880;52.452;8.656;2023-12-14T07:58:01;11.45;;;10.75;;
1765;SDS011;880;52.452;8.656;2023-12-14T08:00:31;12.85;;;11.98;;
1765;SDS011;880;52.452;8.656;2023-12-14T08:02:58;12.43;;;11.65;;
1765;SDS011;880;52.452;8.656;2023-12-14T08:05:26;11.23;;;10.63;;
1765;SDS011;880;52.452;8.656;2023-12-14T08:07:53;12.23;;;11.45;;
1765;SDS011;880;52.452;8.656;2023-12-14T08:10:20;11.10;;;10.35;;
1765;SDS011;880;52.452;8.656;2023-12-14T08:12:47;11.20;;;10.50;;
1765;SDS011;880;52.452;8.656;2023-12-14T08:15:14;11.80;;;11.02;;
1765;SDS011;880;52.452;8.656;2023-12-14T08:17:42;11.82;;;11.13;;
1765;SDS011;880;52.452;8.656;2023-12-14T08:20:09;12.02;;;11.23;;
1765;SDS011;880;52.452;8.656;2023-12-14T08:22:38;12.63;;;11.63;;
1765;SDS011;880;52.452;8.656;2023-12-14T08:25:14;12.43;;;11.48;;
1765;SDS011;880;52.452;8.656;2023-12-14T08:27:42;10.55;;;9.90;;
1765;SDS011;880;52.452;8.656;2023-12-14T08:30:10;11.95;;;11.18;;
1765;SDS011;880;52.452;8.656;2023-12-14T08:32:38;11.55;;;10.75;;
1765;SDS011;880;52.452;8.656;2023-12-14T08:35:06;11.20;;;10.60;;
1765;SDS011;880;52.452;8.656;2023-12-14T08:37:35;11.25;;;10.65;;
1765;SDS011;880;52.452;8.656;2023-12-14T08:40:02;10.88;;;10.30;;
1765;SDS011;880;52.452;8.656;2023-12-14T08:42:32;11.23;;;10.60;;
1765;SDS011;880;52.452;8.656;2023-12-14T08:44:59;10.63;;;10.02;;
1765;SDS011;880;52.452;8.656;2023-12-14T08:47:26;11.90;;;11.10;;
1765;SDS011;880;52.452;8.656;2023-12-14T08:49:53;13.52;;;12.38;;
1765;SDS011;880;52.452;8.656;2023-12-14T08:52:21;14.20;;;12.60;;
1765;SDS011;880;52.452;8.656;2023-12-14T08:54:48;13.05;;;12.20;;
1765;SDS011;880;52.452;8.656;2023-12-14T08:57:15;14.68;;;13.43;;
1765;SDS011;880;52.452;8.656;2023-12-14T08:59:42;13.85;;;12.80;;
1765;SDS011;880;52.452;8.656;2023-12-14T09:02:10;12.95;;;12.02;;
1765;SDS011;880;52.452;8.656;2023-12-14T09:04:37;11.65;;;10.93;;
1765;SDS011;880;52.452;8.656;2023-12-14T09:07:05;10.88;;;10.38;;
1765;SDS011;880;52.452;8.656;2023-12-14T09:09:32;9.93;;;9.43;;
1765;SDS011;880;52.452;8.656;2023-12-14T09:11:59;11.40;;;10.80;;
1765;SDS011;880;52.452;8.656;2023-12-14T09:14:26;12.43;;;11.63;;
1765;SDS011;880;52.452;8.656;2023-12-14T09:16:53;12.18;;;11.48;;
1765;SDS011;880;52.452;8.656;2023-12-14T09:19:20;12.13;;;11.32;;
1765;SDS011;880;52.452;8.656;2023-12-14T09:21:47;12.00;;;11.30;;
1765;SDS011;880;52.452;8.656;2023-12-14T09:24:14;10.35;;;9.73;;
1765;SDS011;880;52.452;8.656;2023-12-14T09:26:42;9.88;;;9.38;;
1765;SDS011;880;52.452;8.656;2023-12-14T09:29:09;10.90;;;10.30;;
1765;SDS011;880;52.452;8.656;2023-12-14T09:31:36;11.77;;;11.07;;
1765;SDS011;880;52.452;8.656;2023-12-14T09:34:08;9.52;;;9.02;;
1765;SDS011;880;52.452;8.656;2023-12-14T09:36:39;10.00;;;9.50;;
1765;SDS011;880;52.452;8.656;2023-12-14T09:39:06;10.05;;;9.50;;
1765;SDS011;880;52.452;8.656;2023-12-14T09:41:37;11.25;;;10.63;;
1765;SDS011;880;52.452;8.656;2023-12-14T09:44:06;10.05;;;9.45;;
1765;SDS011;880;52.452;8.656;2023-12-14T09:46:34;10.38;;;9.77;;
1765;SDS011;880;52.452;8.656;2023-12-14T09:49:04;9.63;;;9.18;;
1765;SDS011;880;52.452;8.656;2023-12-14T09:54:02;10.02;;;9.38;;
1765;SDS011;880;52.452;8.656;2023-12-14T09:56:29;12.02;;;11.15;;
1765;SDS011;880;52.452;8.656;2023-12-14T09:58:57;14.15;;;11.40;;
1765;SDS011;880;52.452;8.656;2023-12-14T10:01:25;17.25;;;13.10;;
1765;SDS011;880;52.452;8.656;2023-12-14T10:04:10;14.82;;;12.18;;
1765;SDS011;880;52.452;8.656;2023-12-14T10:06:40;12.82;;;11.43;;
1765;SDS011;880;52.452;8.656;2023-12-14T10:09:09;11.60;;;10.80;;
1765;SDS011;880;52.452;8.656;2023-12-14T10:11:39;11.77;;;9.35;;
1765;SDS011;880;52.452;8.656;2023-12-14T10:16:53;9.73;;;9.23;;
1765;SDS011;880;52.452;8.656;2023-12-14T10:19:28;10.60;;;9.82;;
1765;SDS011;880;52.452;8.656;2023-12-14T10:21:55;11.13;;;10.23;;
1765;SDS011;880;52.452;8.656;2023-12-14T10:24:22;11.98;;;11.07;;
1765;SDS011;880;52.452;8.656;2023-12-14T10:26:50;13.38;;;12.20;;
1765;SDS011;880;52.452;8.656;2023-12-14T10:29:17;12.75;;;11.90;;
1765;SDS011;880;52.452;8.656;2023-12-14T10:31:45;11.05;;;10.45;;
1765;SDS011;880;52.452;8.656;2023-12-14T10:34:12;10.85;;;10.25;;
1765;SDS011;880;52.452;8.656;2023-12-14T10:36:40;10.23;;;9.68;;
1765;SDS011;880;52.452;8.656;2023-12-14T10:39:09;12.20;;;11.32;;
1765;SDS011;880;52.452;8.656;2023-12-14T10:41:42;10.65;;;9.95;;
1765;SDS011;880;52.452;8.656;2023-12-14T10:44:25;12.85;;;11.88;;
1765;SDS011;880;52.452;8.656;2023-12-14T10:47:14;12.68;;;11.70;;
1765;SDS011;880;52.452;8.656;2023-12-14T10:49:42;10.75;;;10.05;;
1765;SDS011;880;52.452;8.656;2023-12-14T10:52:15;10.27;;;9.57;;
1765;SDS011;880;52.452;8.656;2023-12-14T10:54:43;10.48;;;9.95;;
1765;SDS011;880;52.452;8.656;2023-12-14T10:57:12;13.40;;;12.52;;
1765;SDS011;880;52.452;8.656;2023-12-14T10:59:41;11.30;;;10.70;;
1765;SDS011;880;52.452;8.656;2023-12-14T11:02:08;11.00;;;10.40;;
1765;SDS011;880;52.452;8.656;2023-12-14T11:07:42;12.18;;;11.50;;
1765;SDS011;880;52.452;8.656;2023-12-14T11:10:42;10.50;;;9.90;;
1765;SDS011;880;52.452;8.656;2023-12-14T11:13:11;11.07;;;10.38;;
1765;SDS011;880;52.452;8.656;2023-12-14T11:15:45;12.85;;;11.98;;
1765;SDS011;880;52.452;8.656;2023-12-14T11:23:11;11.27;;;10.68;;
1765;SDS011;880;52.452;8.656;2023-12-14T11:25:48;11.07;;;10.38;;
1765;SDS011;880;52.452;8.656;2023-12-14T11:28:24;11.13;;;10.52;;
1765;SDS011;880;52.452;8.656;2023-12-14T11:30:53;11.60;;;10.80;;
1765;SDS011;880;52.452;8.656;2023-12-14T11:33:22;10.98;;;10.27;;
1765;SDS011;880;52.452;8.656;2023-12-14T11:35:51;11.38;;;10.73;;
1765;SDS011;880;52.452;8.656;2023-12-14T11:38:24;10.93;;;10.30;;
1765;SDS011;880;52.452;8.656;2023-12-14T11:40:51;11.13;;;10.43;;
1765;SDS011;880;52.452;8.656;2023-12-14T11:43:18;9.25;;;8.80;;
1765;SDS011;880;52.452;8.656;2023-12-14T11:45:50;8.95;;;8.38;;
1765;SDS011;880;52.452;8.656;2023-12-14T11:48:17;10.60;;;9.68;;
1765;SDS011;880;52.452;8.656;2023-12-14T11:50:47;10.55;;;9.85;;
1765;SDS011;880;52.452;8.656;2023-12-14T11:53:14;9.80;;;9.23;;
1765;SDS011;880;52.452;8.656;2023-12-14T11:55:42;10.32;;;9.73;;
1765;SDS011;880;52.452;8.656;2023-12-14T11:58:11;11.45;;;10.82;;
1765;SDS011;880;52.452;8.656;2023-12-14T12:00:42;10.48;;;9.88;;
1765;SDS011;880;52.452;8.656;2023-12-14T12:03:14;9.95;;;9.35;;
1765;SDS011;880;52.452;8.656;2023-12-14T12:05:44;10.68;;;10.02;;
1765;SDS011;880;52.452;8.656;2023-12-14T12:08:14;10.50;;;9.80;;
1765;SDS011;880;52.452;8.656;2023-12-14T12:10:42;10.35;;;9.75;;
1765;SDS011;880;52.452;8.656;2023-12-14T12:13:13;11.27;;;10.60;;
1765;SDS011;880;52.452;8.656;2023-12-14T12:15:46;11.25;;;10.43;;
1765;SDS011;880;52.452;8.656;2023-12-14T12:18:14;12.63;;;11.52;;
1765;SDS011;880;52.452;8.656;2023-12-14T12:20:43;12.55;;;11.48;;
1765;SDS011;880;52.452;8.656;2023-12-14T12:23:10;13.10;;;11.93;;
1765;SDS011;880;52.452;8.656;2023-12-14T12:25:37;25.75;;;16.05;;
1765;SDS011;880;52.452;8.656;2023-12-14T12:28:04;13.00;;;11.73;;
1765;SDS011;880;52.452;8.656;2023-12-14T12:30:32;11.27;;;10.55;;
1765;SDS011;880;52.452;8.656;2023-12-14T12:33:02;11.93;;;11.07;;
1765;SDS011;880;52.452;8.656;2023-12-14T12:35:29;10.63;;;9.82;;
1765;SDS011;880;52.452;8.656;2023-12-14T12:37:57;10.48;;;9.77;;
1765;SDS011;880;52.452;8.656;2023-12-14T12:40:24;11.75;;;10.90;;
1765;SDS011;880;52.452;8.656;2023-12-14T12:42:56;11.10;;;10.38;;
1765;SDS011;880;52.452;8.656;2023-12-14T12:45:23;11.50;;;10.70;;
1765;SDS011;880;52.452;8.656;2023-12-14T12:47:54;11.02;;;10.23;;
1765;SDS011;880;52.452;8.656;2023-12-14T12:50:21;11.45;;;10.55;;
1765;SDS011;880;52.452;8.656;2023-12-14T12:52:49;13.10;;;12.10;;
1765;SDS011;880;52.452;8.656;2023-12-14T12:55:17;11.60;;;10.77;;
1765;SDS011;880;52.452;8.656;2023-12-14T12:57:44;15.60;;;12.25;;
1765;SDS011;880;52.452;8.656;2023-12-14T13:00:11;12.20;;;11.30;;
1765;SDS011;880;52.452;8.656;2023-12-14T13:02:39;12.23;;;11.32;;
1765;SDS011;880;52.452;8.656;2023-12-14T13:05:08;13.07;;;12.05;;
1765;SDS011;880;52.452;8.656;2023-12-14T13:07:39;12.05;;;11.07;;
1765;SDS011;880;52.452;8.656;2023-12-14T13:10:10;12.95;;;11.80;;
1765;SDS011;880;52.452;8.656;2023-12-14T13:12:54;12.90;;;11.98;;
1765;SDS011;880;52.452;8.656;2023-12-14T13:15:21;14.45;;;13.20;;
1765;SDS011;880;52.452;8.656;2023-12-14T13:17:53;13.55;;;12.35;;
1765;SDS011;880;52.452;8.656;2023-12-14T13:20:21;13.75;;;12.55;;
1765;SDS011;880;52.452;8.656;2023-12-14T13:22:50;14.05;;;12.70;;
1765;SDS011;880;52.452;8.656;2023-12-14T13:25:17;12.98;;;12.00;;
1765;SDS011;880;52.452;8.656;2023-12-14T13:27:44;14.23;;;12.98;;
1765;SDS011;880;52.452;8.656;2023-12-14T13:30:11;13.68;;;12.48;;
1765;SDS011;880;52.452;8.656;2023-12-14T13:32:43;15.30;;;11.40;;
1765;SDS011;880;52.452;8.656;2023-12-14T13:35:10;14.32;;;12.95;;
1765;SDS011;880;52.452;8.656;2023-12-14T13:37:37;12.88;;;11.82;;
1765;SDS011;880;52.452;8.656;2023-12-14T13:40:06;14.50;;;13.18;;
1765;SDS011;880;52.452;8.656;2023-12-14T13:42:33;15.55;;;14.13;;
1765;SDS011;880;52.452;8.656;2023-12-14T13:45:04;15.05;;;13.65;;
1765;SDS011;880;52.452;8.656;2023-12-14T13:47:32;13.88;;;12.57;;
1765;SDS011;880;52.452;8.656;2023-12-14T13:50:00;14.73;;;13.40;;
1765;SDS011;880;52.452;8.656;2023-12-14T13:56:39;14.52;;;13.25;;
1765;SDS011;880;52.452;8.656;2023-12-14T13:59:06;14.20;;;12.82;;
1765;SDS011;880;52.452;8.656;2023-12-14T14:01:33;13.27;;;12.15;;
1765;SDS011;880;52.452;8.656;2023-12-14T14:04:00;13.82;;;12.48;;
1765;SDS011;880;52.452;8.656;2023-12-14T14:06:27;12.95;;;11.77;;
1765;SDS011;880;52.452;8.656;2023-12-14T14:08:54;14.13;;;12.95;;
1765;SDS011;880;52.452;8.656;2023-12-14T14:11:21;14.85;;;12.43;;
1765;SDS011;880;52.452;8.656;2023-12-14T14:13:49;13.23;;;12.10;;
1765;SDS011;880;52.452;8.656;2023-12-14T14:16:15;12.80;;;11.77;;
1765;SDS011;880;52.452;8.656;2023-12-14T14:18:42;15.02;;;13.63;;
1765;SDS011;880;52.452;8.656;2023-12-14T14:21:09;15.13;;;12.75;;
1765;SDS011;880;52.452;8.656;2023-12-14T14:23:36;15.50;;;14.07;;
1765;SDS011;880;52.452;8.656;2023-12-14T14:26:03;14.52;;;13.30;;
1765;SDS011;880;52.452;8.656;2023-12-14T14:28:30;14.00;;;12.70;;
1765;SDS011;880;52.452;8.656;2023-12-14T14:30:57;13.25;;;12.15;;
1765;SDS011;880;52.452;8.656;2023-12-14T14:33:25;14.02;;;12.63;;
1765;SDS011;880;52.452;8.656;2023-12-14T14:35:52;15.57;;;12.25;;
1765;SDS011;880;52.452;8.656;2023-12-14T14:38:19;15.25;;;13.90;;
1765;SDS011;880;52.452;8.656;2023-12-14T14:40:47;13.65;;;12.25;;
1765;SDS011;880;52.452;8.656;2023-12-14T14:43:14;14.50;;;13.15;;
1765;SDS011;880;52.452;8.656;2023-12-14T14:45:41;14.07;;;12.77;;
1765;SDS011;880;52.452;8.656;2023-12-14T14:48:10;13.30;;;12.20;;
1765;SDS011;880;52.452;8.656;2023-12-14T14:50:37;15.90;;;13.23;;
1765;SDS011;880;52.452;8.656;2023-12-14T14:53:04;15.18;;;13.77;;
1765;SDS011;880;52.452;8.656;2023-12-14T14:55:31;13.23;;;11.93;;
1765;SDS011;880;52.452;8.656;2023-12-14T14:57:59;24.55;;;15.13;;
1765;SDS011;880;52.452;8.656;2023-12-14T15:00:26;14.75;;;13.35;;
1765;SDS011;880;52.452;8.656;2023-12-14T15:02:53;19.40;;;13.35;;
1765;SDS011;880;52.452;8.656;2023-12-14T15:05:20;17.92;;;14.27;;
1765;SDS011;880;52.452;8.656;2023-12-14T15:07:47;15.10;;;13.65;;
1765;SDS011;880;52.452;8.656;2023-12-14T15:10:14;17.98;;;13.75;;
1765;SDS011;880;52.452;8.656;2023-12-14T15:12:41;16.52;;;14.98;;
1765;SDS011;880;52.452;8.656;2023-12-14T15:15:08;20.40;;;15.02;;
1765;SDS011;880;52.452;8.656;2023-12-14T15:17:36;17.48;;;15.40;;
1765;SDS011;880;52.452;8.656;2023-12-14T15:20:03;16.95;;;14.85;;
1765;SDS011;880;52.452;8.656;2023-12-14T15:22:31;18.02;;;15.25;;
1765;SDS011;880;52.452;8.656;2023-12-14T15:24:59;18.20;;;13.82;;
1765;SDS011;880;52.452;8.656;2023-12-14T15:27:26;17.90;;;13.45;;
1765;SDS011;880;52.452;8.656;2023-12-14T15:29:53;18.55;;;15.57;;
1765;SDS011;880;52.452;8.656;2023-12-14T15:32:20;20.77;;;15.18;;
1765;SDS011;880;52.452;8.656;2023-12-14T15:34:47;19.35;;;14.05;;